sensor_id;sensor_type;location;lat;lon;timestamp;P1;durP1;ratioP1;P2;durP2;ratioP2
57395;SDS011;43222;52.912;6.940;2022-08-30T00:00:51;10.15;;;5.07;;
57395;SDS011;43222;52.912;6.940;2022-08-30T00:03:26;9.48;;;4.97;;
57395;SDS011;43222;52.912;6.940;2022-08-30T00:05:53;9.38;;;5.00;;
57395;SDS011;43222;52.912;6.940;2022-08-30T00:08:19;9.55;;;5.13;;
57395;SDS011;43222;52.912;6.940;2022-08-30T00:10:45;10.48;;;4.95;;
57395;SDS011;43222;52.912;6.940;2022-08-30T00:13:15;9.77;;;5.18;;
57395;SDS011;43222;52.912;6.940;2022-08-30T00:15:42;13.40;;;5.40;;
57395;SDS011;43222;52.912;6.940;2022-08-30T00:18:08;9.98;;;5.05;;
57395;SDS011;43222;52.912;6.940;2022-08-30T00:20:35;8.35;;;4.95;;
57395;SDS011;43222;52.912;6.940;2022-08-30T00:23:01;8.45;;;5.07;;
57395;SDS011;43222;52.912;6.940;2022-08-30T00:25:28;10.30;;;5.22;;
57395;SDS011;43222;52.912;6.940;2022-08-30T00:27:54;10.32;;;5.38;;
57395;SDS011;43222;52.912;6.940;2022-08-30T00:30:20;11.40;;;5.43;;
57395;SDS011;43222;52.912;6.940;2022-08-30T00:32:47;12.93;;;5.88;;
57395;SDS011;43222;52.912;6.940;2022-08-30T00:35:14;10.18;;;5.57;;
57395;SDS011;43222;52.912;6.940;2022-08-30T00:37:40;9.82;;;5.93;;
57395;SDS011;43222;52.912;6.940;2022-08-30T00:40:06;9.50;;;5.55;;
57395;SDS011;43222;52.912;6.940;2022-08-30T00:42:33;7.90;;;5.53;;
57395;SDS011;43222;52.912;6.940;2022-08-30T00:45:00;8.98;;;5.55;;
57395;SDS011;43222;52.912;6.940;2022-08-30T00:47:26;9.75;;;5.97;;
57395;SDS011;43222;52.912;6.940;2022-08-30T00:49:52;13.13;;;6.20;;
57395;SDS011;43222;52.912;6.940;2022-08-30T00:52:19;10.52;;;6.45;;
57395;SDS011;43222;52.912;6.940;2022-08-30T00:54:46;12.77;;;6.57;;
57395;SDS011;43222;52.912;6.940;2022-08-30T00:57:13;11.70;;;6.63;;
57395;SDS011;43222;52.912;6.940;2022-08-30T00:59:40;10.15;;;6.65;;
57395;SDS011;43222;52.912;6.940;2022-08-30T01:02:07;10.23;;;6.88;;
57395;SDS011;43222;52.912;6.940;2022-08-30T01:04:34;10.55;;;6.88;;
57395;SDS011;43222;52.912;6.940;2022-08-30T01:07:01;9.15;;;6.63;;
57395;SDS011;43222;52.912;6.940;2022-08-30T01:09:27;9.65;;;6.20;;
57395;SDS011;43222;52.912;6.940;2022-08-30T01:11:53;9.43;;;6.68;;
57395;SDS011;43222;52.912;6.940;2022-08-30T01:14:20;8.32;;;6.13;;
57395;SDS011;43222;52.912;6.940;2022-08-30T01:16:47;9.85;;;6.75;;
57395;SDS011;43222;52.912;6.940;2022-08-30T01:19:17;11.95;;;6.70;;
57395;SDS011;43222;52.912;6.940;2022-08-30T01:21:50;10.85;;;6.78;;
57395;SDS011;43222;52.912;6.940;2022-08-30T01:24:18;8.65;;;6.40;;
57395;SDS011;43222;52.912;6.940;2022-08-30T01:26:45;10.27;;;7.03;;
57395;SDS011;43222;52.912;6.940;2022-08-30T01:29:12;11.75;;;7.50;;
57395;SDS011;43222;52.912;6.940;2022-08-30T01:31:40;10.50;;;7.00;;
57395;SDS011;43222;52.912;6.940;2022-08-30T01:34:06;11.77;;;7.50;;
57395;SDS011;43222;52.912;6.940;2022-08-30T01:36:33;10.68;;;7.55;;
57395;SDS011;43222;52.912;6.940;2022-08-30T01:39:00;11.52;;;7.35;;
57395;SDS011;43222;52.912;6.940;2022-08-30T01:41:28;10.73;;;7.43;;
57395;SDS011;43222;52.912;6.940;2022-08-30T01:43:55;9.25;;;7.18;;
57395;SDS011;43222;52.912;6.940;2022-08-30T01:46:23;13.35;;;7.53;;
57395;SDS011;43222;52.912;6.940;2022-08-30T01:48:51;10.77;;;7.50;;
57395;SDS011;43222;52.912;6.940;2022-08-30T01:51:17;9.48;;;7.50;;
57395;SDS011;43222;52.912;6.940;2022-08-30T01:53:43;13.20;;;7.07;;
57395;SDS011;43222;52.912;6.940;2022-08-30T01:56:10;12.65;;;7.60;;
57395;SDS011;43222;52.912;6.940;2022-08-30T01:58:37;10.40;;;6.43;;
57395;SDS011;43222;52.912;6.940;2022-08-30T02:01:04;10.40;;;6.63;;
57395;SDS011;43222;52.912;6.940;2022-08-30T02:03:31;11.15;;;6.10;;
57395;SDS011;43222;52.912;6.940;2022-08-30T02:06:06;8.93;;;6.78;;
57395;SDS011;43222;52.912;6.940;2022-08-30T02:08:33;11.93;;;7.32;;
57395;SDS011;43222;52.912;6.940;2022-08-30T02:10:59;11.20;;;6.80;;
57395;SDS011;43222;52.912;6.940;2022-08-30T02:13:26;11.77;;;6.88;;
57395;SDS011;43222;52.912;6.940;2022-08-30T02:15:52;15.30;;;7.03;;
57395;SDS011;43222;52.912;6.940;2022-08-30T02:18:18;10.00;;;7.05;;
57395;SDS011;43222;52.912;6.940;2022-08-30T02:20:44;9.00;;;6.18;;
57395;SDS011;43222;52.912;6.940;2022-08-30T02:23:10;12.80;;;6.65;;
57395;SDS011;43222;52.912;6.940;2022-08-30T02:25:36;10.20;;;6.63;;
57395;SDS011;43222;52.912;6.940;2022-08-30T02:28:03;11.15;;;6.78;;
57395;SDS011;43222;52.912;6.940;2022-08-30T02:30:29;11.85;;;6.60;;
57395;SDS011;43222;52.912;6.940;2022-08-30T02:32:56;11.75;;;6.63;;
57395;SDS011;43222;52.912;6.940;2022-08-30T02:35:22;10.95;;;6.70;;
57395;SDS011;43222;52.912;6.940;2022-08-30T02:37:48;9.88;;;6.55;;
57395;SDS011;43222;52.912;6.940;2022-08-30T02:40:14;9.90;;;6.85;;
57395;SDS011;43222;52.912;6.940;2022-08-30T02:42:42;10.95;;;6.88;;
57395;SDS011;43222;52.912;6.940;2022-08-30T02:45:08;10.52;;;6.93;;
57395;SDS011;43222;52.912;6.940;2022-08-30T02:47:34;8.90;;;7.22;;
57395;SDS011;43222;52.912;6.940;2022-08-30T02:50:03;10.80;;;6.68;;
57395;SDS011;43222;52.912;6.940;2022-08-30T02:52:29;9.75;;;7.20;;
57395;SDS011;43222;52.912;6.940;2022-08-30T02:54:55;9.15;;;6.63;;
57395;SDS011;43222;52.912;6.940;2022-08-30T02:57:21;10.13;;;7.10;;
57395;SDS011;43222;52.912;6.940;2022-08-30T02:59:48;8.40;;;6.78;;
57395;SDS011;43222;52.912;6.940;2022-08-30T03:02:14;9.48;;;6.63;;
57395;SDS011;43222;52.912;6.940;2022-08-30T03:04:41;10.40;;;7.40;;
57395;SDS011;43222;52.912;6.940;2022-08-30T03:07:09;10.85;;;7.10;;
57395;SDS011;43222;52.912;6.940;2022-08-30T03:09:36;9.68;;;7.60;;
57395;SDS011;43222;52.912;6.940;2022-08-30T03:12:03;15.55;;;8.43;;
57395;SDS011;43222;52.912;6.940;2022-08-30T03:14:31;12.98;;;9.55;;
57395;SDS011;43222;52.912;6.940;2022-08-30T03:16:57;11.15;;;8.65;;
57395;SDS011;43222;52.912;6.940;2022-08-30T03:19:23;12.93;;;8.55;;
57395;SDS011;43222;52.912;6.940;2022-08-30T03:21:49;16.00;;;9.40;;
57395;SDS011;43222;52.912;6.940;2022-08-30T03:24:18;12.43;;;9.85;;
57395;SDS011;43222;52.912;6.940;2022-08-30T03:26:44;13.13;;;9.70;;
57395;SDS011;43222;52.912;6.940;2022-08-30T03:29:10;11.05;;;9.27;;
57395;SDS011;43222;52.912;6.940;2022-08-30T03:31:36;12.88;;;9.88;;
57395;SDS011;43222;52.912;6.940;2022-08-30T03:34:02;11.98;;;9.95;;
57395;SDS011;43222;52.912;6.940;2022-08-30T03:36:29;11.70;;;9.82;;
57395;SDS011;43222;52.912;6.940;2022-08-30T03:38:55;13.15;;;9.82;;
57395;SDS011;43222;52.912;6.940;2022-08-30T03:41:22;12.20;;;10.48;;
57395;SDS011;43222;52.912;6.940;2022-08-30T03:43:48;13.10;;;9.95;;
57395;SDS011;43222;52.912;6.940;2022-08-30T03:46:14;13.63;;;10.30;;
57395;SDS011;43222;52.912;6.940;2022-08-30T03:48:40;13.45;;;10.52;;
57395;SDS011;43222;52.912;6.940;2022-08-30T03:51:07;16.52;;;10.80;;
57395;SDS011;43222;52.912;6.940;2022-08-30T03:53:33;13.13;;;10.75;;
57395;SDS011;43222;52.912;6.940;2022-08-30T03:55:59;12.90;;;10.50;;
57395;SDS011;43222;52.912;6.940;2022-08-30T03:58:26;12.73;;;10.93;;
57395;SDS011;43222;52.912;6.940;2022-08-30T04:00:52;14.32;;;10.45;;
57395;SDS011;43222;52.912;6.940;2022-08-30T04:03:18;14.50;;;10.32;;
57395;SDS011;43222;52.912;6.940;2022-08-30T04:05:50;12.10;;;10.32;;
57395;SDS011;43222;52.912;6.940;2022-08-30T04:08:16;13.10;;;10.63;;
57395;SDS011;43222;52.912;6.940;2022-08-30T04:10:41;15.10;;;11.38;;
57395;SDS011;43222;52.912;6.940;2022-08-30T04:13:08;14.02;;;10.27;;
57395;SDS011;43222;52.912;6.940;2022-08-30T04:15:34;14.15;;;10.38;;
57395;SDS011;43222;52.912;6.940;2022-08-30T04:18:00;15.32;;;11.52;;
57395;SDS011;43222;52.912;6.940;2022-08-30T04:20:26;12.55;;;10.38;;
57395;SDS011;43222;52.912;6.940;2022-08-30T04:22:52;16.45;;;10.32;;
57395;SDS011;43222;52.912;6.940;2022-08-30T04:25:18;12.38;;;10.55;;
57395;SDS011;43222;52.912;6.940;2022-08-30T04:27:44;16.33;;;10.85;;
57395;SDS011;43222;52.912;6.940;2022-08-30T04:30:11;14.90;;;11.90;;
57395;SDS011;43222;52.912;6.940;2022-08-30T04:32:37;15.55;;;11.73;;
57395;SDS011;43222;52.912;6.940;2022-08-30T04:35:03;15.48;;;11.65;;
57395;SDS011;43222;52.912;6.940;2022-08-30T04:37:29;16.05;;;12.10;;
57395;SDS011;43222;52.912;6.940;2022-08-30T04:39:56;14.15;;;12.00;;
57395;SDS011;43222;52.912;6.940;2022-08-30T04:42:24;15.23;;;12.15;;
57395;SDS011;43222;52.912;6.940;2022-08-30T04:44:54;15.40;;;12.50;;
57395;SDS011;43222;52.912;6.940;2022-08-30T04:47:20;15.20;;;11.55;;
57395;SDS011;43222;52.912;6.940;2022-08-30T04:49:46;13.90;;;11.73;;
57395;SDS011;43222;52.912;6.940;2022-08-30T04:52:12;14.30;;;11.45;;
57395;SDS011;43222;52.912;6.940;2022-08-30T04:54:38;14.70;;;11.52;;
57395;SDS011;43222;52.912;6.940;2022-08-30T04:57:05;13.70;;;12.23;;
57395;SDS011;43222;52.912;6.940;2022-08-30T04:59:32;14.73;;;12.10;;
57395;SDS011;43222;52.912;6.940;2022-08-30T05:01:58;15.05;;;12.00;;
57395;SDS011;43222;52.912;6.940;2022-08-30T05:04:24;15.90;;;11.13;;
57395;SDS011;43222;52.912;6.940;2022-08-30T05:06:50;14.10;;;11.68;;
57395;SDS011;43222;52.912;6.940;2022-08-30T05:09:16;13.10;;;11.73;;
57395;SDS011;43222;52.912;6.940;2022-08-30T05:11:43;16.15;;;12.63;;
57395;SDS011;43222;52.912;6.940;2022-08-30T05:14:10;15.13;;;11.27;;
57395;SDS011;43222;52.912;6.940;2022-08-30T05:16:36;15.18;;;12.43;;
57395;SDS011;43222;52.912;6.940;2022-08-30T05:19:02;13.50;;;11.73;;
57395;SDS011;43222;52.912;6.940;2022-08-30T05:21:28;14.63;;;12.23;;
57395;SDS011;43222;52.912;6.940;2022-08-30T05:23:55;14.57;;;11.93;;
57395;SDS011;43222;52.912;6.940;2022-08-30T05:26:22;15.25;;;11.68;;
57395;SDS011;43222;52.912;6.940;2022-08-30T05:28:49;13.77;;;10.13;;
57395;SDS011;43222;52.912;6.940;2022-08-30T05:31:16;12.30;;;9.63;;
57395;SDS011;43222;52.912;6.940;2022-08-30T05:33:43;9.63;;;8.27;;
57395;SDS011;43222;52.912;6.940;2022-08-30T05:36:10;13.27;;;7.90;;
57395;SDS011;43222;52.912;6.940;2022-08-30T05:38:36;12.05;;;7.25;;
57395;SDS011;43222;52.912;6.940;2022-08-30T05:41:02;10.93;;;6.40;;
57395;SDS011;43222;52.912;6.940;2022-08-30T05:43:28;8.52;;;6.15;;
57395;SDS011;43222;52.912;6.940;2022-08-30T05:45:58;7.63;;;5.97;;
57395;SDS011;43222;52.912;6.940;2022-08-30T05:48:24;9.70;;;5.63;;
57395;SDS011;43222;52.912;6.940;2022-08-30T05:50:59;10.07;;;5.30;;
57395;SDS011;43222;52.912;6.940;2022-08-30T05:53:25;7.85;;;5.15;;
57395;SDS011;43222;52.912;6.940;2022-08-30T05:55:51;9.25;;;5.18;;
57395;SDS011;43222;52.912;6.940;2022-08-30T05:58:17;7.38;;;5.28;;
57395;SDS011;43222;52.912;6.940;2022-08-30T06:00:43;7.68;;;5.10;;
57395;SDS011;43222;52.912;6.940;2022-08-30T06:03:09;7.97;;;4.95;;
57395;SDS011;43222;52.912;6.940;2022-08-30T06:05:36;7.85;;;5.00;;
57395;SDS011;43222;52.912;6.940;2022-08-30T06:08:02;7.35;;;4.95;;
57395;SDS011;43222;52.912;6.940;2022-08-30T06:10:28;7.70;;;4.57;;
57395;SDS011;43222;52.912;6.940;2022-08-30T06:12:54;8.73;;;5.38;;
57395;SDS011;43222;52.912;6.940;2022-08-30T06:15:21;6.28;;;4.30;;
57395;SDS011;43222;52.912;6.940;2022-08-30T06:17:47;9.27;;;4.72;;
57395;SDS011;43222;52.912;6.940;2022-08-30T06:20:13;9.75;;;4.63;;
57395;SDS011;43222;52.912;6.940;2022-08-30T06:22:42;7.65;;;4.00;;
57395;SDS011;43222;52.912;6.940;2022-08-30T06:25:08;9.07;;;3.85;;
57395;SDS011;43222;52.912;6.940;2022-08-30T06:27:34;6.28;;;3.90;;
57395;SDS011;43222;52.912;6.940;2022-08-30T06:30:00;7.50;;;3.55;;
57395;SDS011;43222;52.912;6.940;2022-08-30T06:32:27;7.45;;;3.65;;
57395;SDS011;43222;52.912;6.940;2022-08-30T06:34:53;8.10;;;3.60;;
57395;SDS011;43222;52.912;6.940;2022-08-30T06:37:19;8.05;;;3.67;;
57395;SDS011;43222;52.912;6.940;2022-08-30T06:39:45;7.70;;;3.65;;
57395;SDS011;43222;52.912;6.940;2022-08-30T06:42:11;8.02;;;3.30;;
57395;SDS011;43222;52.912;6.940;2022-08-30T06:44:37;6.68;;;3.10;;
57395;SDS011;43222;52.912;6.940;2022-08-30T06:47:03;8.50;;;3.40;;
57395;SDS011;43222;52.912;6.940;2022-08-30T06:49:29;7.35;;;3.13;;
57395;SDS011;43222;52.912;6.940;2022-08-30T06:51:55;5.78;;;2.80;;
57395;SDS011;43222;52.912;6.940;2022-08-30T06:54:21;7.57;;;3.25;;
57395;SDS011;43222;52.912;6.940;2022-08-30T06:56:47;6.97;;;3.20;;
57395;SDS011;43222;52.912;6.940;2022-08-30T06:59:14;7.45;;;2.80;;
57395;SDS011;43222;52.912;6.940;2022-08-30T07:01:40;7.53;;;2.92;;
57395;SDS011;43222;52.912;6.940;2022-08-30T07:04:06;6.15;;;3.20;;
57395;SDS011;43222;52.912;6.940;2022-08-30T07:06:32;6.60;;;3.15;;
57395;SDS011;43222;52.912;6.940;2022-08-30T07:08:58;6.78;;;2.75;;
57395;SDS011;43222;52.912;6.940;2022-08-30T07:11:34;6.07;;;2.65;;
57395;SDS011;43222;52.912;6.940;2022-08-30T07:14:01;9.73;;;3.25;;
57395;SDS011;43222;52.912;6.940;2022-08-30T07:16:27;5.53;;;2.70;;
57395;SDS011;43222;52.912;6.940;2022-08-30T07:18:54;7.43;;;2.72;;
57395;SDS011;43222;52.912;6.940;2022-08-30T07:21:25;5.65;;;2.67;;
57395;SDS011;43222;52.912;6.940;2022-08-30T07:23:52;6.70;;;2.60;;
57395;SDS011;43222;52.912;6.940;2022-08-30T07:26:21;7.63;;;2.70;;
57395;SDS011;43222;52.912;6.940;2022-08-30T07:28:48;6.07;;;2.67;;
57395;SDS011;43222;52.912;6.940;2022-08-30T07:31:14;7.50;;;2.42;;
57395;SDS011;43222;52.912;6.940;2022-08-30T07:33:41;6.55;;;2.67;;
57395;SDS011;43222;52.912;6.940;2022-08-30T07:36:07;6.15;;;2.25;;
57395;SDS011;43222;52.912;6.940;2022-08-30T07:38:33;9.40;;;2.38;;
57395;SDS011;43222;52.912;6.940;2022-08-30T07:40:59;5.80;;;2.30;;
57395;SDS011;43222;52.912;6.940;2022-08-30T07:43:26;7.25;;;2.28;;
57395;SDS011;43222;52.912;6.940;2022-08-30T07:45:52;5.05;;;1.90;;
57395;SDS011;43222;52.912;6.940;2022-08-30T07:48:18;6.15;;;2.28;;
57395;SDS011;43222;52.912;6.940;2022-08-30T07:50:45;5.93;;;2.35;;
57395;SDS011;43222;52.912;6.940;2022-08-30T07:53:11;6.45;;;2.08;;
57395;SDS011;43222;52.912;6.940;2022-08-30T07:55:38;4.75;;;1.85;;
57395;SDS011;43222;52.912;6.940;2022-08-30T07:58:04;6.43;;;2.33;;
57395;SDS011;43222;52.912;6.940;2022-08-30T08:00:30;6.95;;;2.28;;
57395;SDS011;43222;52.912;6.940;2022-08-30T08:02:56;4.93;;;2.00;;
57395;SDS011;43222;52.912;6.940;2022-08-30T08:05:22;6.45;;;2.10;;
57395;SDS011;43222;52.912;6.940;2022-08-30T08:07:48;6.22;;;2.00;;
57395;SDS011;43222;52.912;6.940;2022-08-30T08:10:14;5.53;;;1.80;;
57395;SDS011;43222;52.912;6.940;2022-08-30T08:12:42;6.43;;;1.85;;
57395;SDS011;43222;52.912;6.940;2022-08-30T08:15:08;6.68;;;2.00;;
57395;SDS011;43222;52.912;6.940;2022-08-30T08:17:35;5.50;;;1.67;;
57395;SDS011;43222;52.912;6.940;2022-08-30T08:20:01;5.40;;;1.88;;
57395;SDS011;43222;52.912;6.940;2022-08-30T08:22:27;5.90;;;1.83;;
57395;SDS011;43222;52.912;6.940;2022-08-30T08:24:53;6.15;;;2.00;;
57395;SDS011;43222;52.912;6.940;2022-08-30T08:27:19;8.05;;;1.83;;
57395;SDS011;43222;52.912;6.940;2022-08-30T08:29:45;8.00;;;1.50;;
57395;SDS011;43222;52.912;6.940;2022-08-30T08:32:11;7.50;;;1.60;;
57395;SDS011;43222;52.912;6.940;2022-08-30T08:34:37;6.20;;;1.70;;
57395;SDS011;43222;52.912;6.940;2022-08-30T08:37:05;4.68;;;1.80;;
57395;SDS011;43222;52.912;6.940;2022-08-30T08:39:31;4.13;;;1.63;;
57395;SDS011;43222;52.912;6.940;2022-08-30T08:47:21;4.60;;;1.50;;
57395;SDS011;43222;52.912;6.940;2022-08-30T08:49:49;4.70;;;1.80;;
57395;SDS011;43222;52.912;6.940;2022-08-30T08:52:21;4.63;;;1.40;;
57395;SDS011;43222;52.912;6.940;2022-08-30T08:55:09;6.18;;;1.60;;
57395;SDS011;43222;52.912;6.940;2022-08-30T08:57:36;4.82;;;1.75;;
57395;SDS011;43222;52.912;6.940;2022-08-30T09:00:06;9.32;;;1.98;;
57395;SDS011;43222;52.912;6.940;2022-08-30T09:02:35;6.35;;;1.40;;
57395;SDS011;43222;52.912;6.940;2022-08-30T09:05:04;4.88;;;1.45;;
57395;SDS011;43222;52.912;6.940;2022-08-30T09:07:38;5.43;;;1.20;;
57395;SDS011;43222;52.912;6.940;2022-08-30T09:10:04;5.40;;;1.73;;
57395;SDS011;43222;52.912;6.940;2022-08-30T09:12:31;4.57;;;1.30;;
57395;SDS011;43222;52.912;6.940;2022-08-30T09:15:02;3.20;;;1.27;;
57395;SDS011;43222;52.912;6.940;2022-08-30T09:17:28;4.60;;;1.50;;
57395;SDS011;43222;52.912;6.940;2022-08-30T09:22:25;5.38;;;1.42;;
57395;SDS011;43222;52.912;6.940;2022-08-30T09:25:09;3.28;;;1.13;;
57395;SDS011;43222;52.912;6.940;2022-08-30T09:27:43;5.85;;;1.48;;
57395;SDS011;43222;52.912;6.940;2022-08-30T09:32:40;7.38;;;1.42;;
57395;SDS011;43222;52.912;6.940;2022-08-30T09:35:17;5.95;;;1.13;;
57395;SDS011;43222;52.912;6.940;2022-08-30T09:37:45;4.00;;;1.35;;
57395;SDS011;43222;52.912;6.940;2022-08-30T09:40:15;4.32;;;1.30;;
57395;SDS011;43222;52.912;6.940;2022-08-30T09:42:46;7.50;;;1.55;;
57395;SDS011;43222;52.912;6.940;2022-08-30T09:45:27;4.40;;;1.20;;
57395;SDS011;43222;52.912;6.940;2022-08-30T09:47:56;5.88;;;1.40;;
57395;SDS011;43222;52.912;6.940;2022-08-30T09:50:22;5.53;;;1.50;;
57395;SDS011;43222;52.912;6.940;2022-08-30T09:52:56;4.40;;;1.50;;
57395;SDS011;43222;52.912;6.940;2022-08-30T09:55:28;3.58;;;1.20;;
57395;SDS011;43222;52.912;6.940;2022-08-30T10:00:27;5.57;;;1.20;;
57395;SDS011;43222;52.912;6.940;2022-08-30T10:03:03;4.53;;;1.33;;
57395;SDS011;43222;52.912;6.940;2022-08-30T10:05:50;5.25;;;1.48;;
57395;SDS011;43222;52.912;6.940;2022-08-30T10:08:20;5.80;;;1.38;;
57395;SDS011;43222;52.912;6.940;2022-08-30T10:10:55;4.30;;;1.60;;
57395;SDS011;43222;52.912;6.940;2022-08-30T10:18:42;3.78;;;1.23;;
57395;SDS011;43222;52.912;6.940;2022-08-30T10:21:17;4.88;;;1.40;;
57395;SDS011;43222;52.912;6.940;2022-08-30T10:23:45;4.53;;;1.30;;
57395;SDS011;43222;52.912;6.940;2022-08-30T10:26:14;4.72;;;1.35;;
57395;SDS011;43222;52.912;6.940;2022-08-30T10:28:50;4.38;;;1.45;;
57395;SDS011;43222;52.912;6.940;2022-08-30T10:33:50;5.93;;;1.55;;
57395;SDS011;43222;52.912;6.940;2022-08-30T10:36:17;6.13;;;1.58;;
57395;SDS011;43222;52.912;6.940;2022-08-30T10:38:45;5.15;;;1.30;;
57395;SDS011;43222;52.912;6.940;2022-08-30T10:41:23;7.25;;;1.50;;
57395;SDS011;43222;52.912;6.940;2022-08-30T10:43:54;4.72;;;1.25;;
57395;SDS011;43222;52.912;6.940;2022-08-30T10:46:29;5.72;;;1.30;;
57395;SDS011;43222;52.912;6.940;2022-08-30T10:48:58;4.75;;;1.45;;
57395;SDS011;43222;52.912;6.940;2022-08-30T10:51:35;4.70;;;1.30;;
57395;SDS011;43222;52.912;6.940;2022-08-30T10:54:15;5.75;;;1.40;;
57395;SDS011;43222;52.912;6.940;2022-08-30T10:56:43;6.20;;;1.40;;
57395;SDS011;43222;52.912;6.940;2022-08-30T10:59:10;5.78;;;1.50;;
57395;SDS011;43222;52.912;6.940;2022-08-30T11:07:31;4.72;;;1.38;;
57395;SDS011;43222;52.912;6.940;2022-08-30T11:15:12;4.10;;;1.10;;
57395;SDS011;43222;52.912;6.940;2022-08-30T11:17:52;4.45;;;1.10;;
57395;SDS011;43222;52.912;6.940;2022-08-30T11:20:29;4.53;;;1.10;;
57395;SDS011;43222;52.912;6.940;2022-08-30T11:23:10;4.38;;;1.10;;
57395;SDS011;43222;52.912;6.940;2022-08-30T11:28:31;4.13;;;1.00;;
57395;SDS011;43222;52.912;6.940;2022-08-30T11:31:03;3.05;;;1.08;;
57395;SDS011;43222;52.912;6.940;2022-08-30T11:36:05;5.05;;;1.33;;
57395;SDS011;43222;52.912;6.940;2022-08-30T11:56:48;4.85;;;1.08;;
57395;SDS011;43222;52.912;6.940;2022-08-30T11:59:19;7.90;;;1.10;;
57395;SDS011;43222;52.912;6.940;2022-08-30T12:01:47;5.65;;;1.00;;
57395;SDS011;43222;52.912;6.940;2022-08-30T12:09:11;4.63;;;1.20;;
57395;SDS011;43222;52.912;6.940;2022-08-30T12:14:04;3.25;;;1.08;;
57395;SDS011;43222;52.912;6.940;2022-08-30T12:16:34;2.28;;;0.88;;
57395;SDS011;43222;52.912;6.940;2022-08-30T12:19:21;3.53;;;0.75;;
57395;SDS011;43222;52.912;6.940;2022-08-30T12:21:55;3.20;;;0.88;;
57395;SDS011;43222;52.912;6.940;2022-08-30T12:24:28;4.78;;;0.98;;
57395;SDS011;43222;52.912;6.940;2022-08-30T12:26:56;3.55;;;0.88;;
57395;SDS011;43222;52.912;6.940;2022-08-30T12:29:24;4.65;;;1.20;;
57395;SDS011;43222;52.912;6.940;2022-08-30T12:31:52;4.28;;;0.90;;
57395;SDS011;43222;52.912;6.940;2022-08-30T12:34:23;3.38;;;1.10;;
57395;SDS011;43222;52.912;6.940;2022-08-30T12:39:21;3.40;;;1.00;;
57395;SDS011;43222;52.912;6.940;2022-08-30T12:41:47;3.30;;;1.23;;
57395;SDS011;43222;52.912;6.940;2022-08-30T12:44:21;3.50;;;1.00;;
57395;SDS011;43222;52.912;6.940;2022-08-30T12:46:49;4.38;;;1.17;;
57395;SDS011;43222;52.912;6.940;2022-08-30T12:49:16;4.47;;;1.30;;
57395;SDS011;43222;52.912;6.940;2022-08-30T12:51:43;3.80;;;1.15;;
57395;SDS011;43222;52.912;6.940;2022-08-30T12:56:45;2.85;;;1.10;;
57395;SDS011;43222;52.912;6.940;2022-08-30T12:59:36;2.85;;;0.90;;
57395;SDS011;43222;52.912;6.940;2022-08-30T13:02:14;3.20;;;0.80;;
57395;SDS011;43222;52.912;6.940;2022-08-30T13:04:41;3.20;;;0.95;;
57395;SDS011;43222;52.912;6.940;2022-08-30T13:07:07;2.45;;;0.90;;
57395;SDS011;43222;52.912;6.940;2022-08-30T13:09:34;3.03;;;0.90;;
57395;SDS011;43222;52.912;6.940;2022-08-30T13:12:01;3.13;;;0.90;;
57395;SDS011;43222;52.912;6.940;2022-08-30T13:14:35;4.53;;;1.05;;
57395;SDS011;43222;52.912;6.940;2022-08-30T13:17:06;4.28;;;1.08;;
57395;SDS011;43222;52.912;6.940;2022-08-30T13:21:58;3.67;;;0.80;;
57395;SDS011;43222;52.912;6.940;2022-08-30T13:24:25;4.35;;;1.20;;
57395;SDS011;43222;52.912;6.940;2022-08-30T13:26:52;2.53;;;0.80;;
57395;SDS011;43222;52.912;6.940;2022-08-30T13:29:19;3.83;;;0.80;;
57395;SDS011;43222;52.912;6.940;2022-08-30T13:31:46;2.72;;;1.00;;
57395;SDS011;43222;52.912;6.940;2022-08-30T13:34:12;4.45;;;1.20;;
57395;SDS011;43222;52.912;6.940;2022-08-30T13:36:40;4.53;;;1.00;;
57395;SDS011;43222;52.912;6.940;2022-08-30T13:39:07;2.70;;;0.90;;
57395;SDS011;43222;52.912;6.940;2022-08-30T13:41:33;5.43;;;1.05;;
57395;SDS011;43222;52.912;6.940;2022-08-30T13:44:00;2.95;;;0.95;;
57395;SDS011;43222;52.912;6.940;2022-08-30T13:46:28;5.68;;;1.17;;
57395;SDS011;43222;52.912;6.940;2022-08-30T13:48:59;2.83;;;0.80;;
57395;SDS011;43222;52.912;6.940;2022-08-30T13:51:27;3.40;;;0.90;;
57395;SDS011;43222;52.912;6.940;2022-08-30T13:53:53;8.00;;;1.10;;
57395;SDS011;43222;52.912;6.940;2022-08-30T13:56:19;3.13;;;1.08;;
57395;SDS011;43222;52.912;6.940;2022-08-30T13:58:45;4.57;;;1.20;;
57395;SDS011;43222;52.912;6.940;2022-08-30T14:01:11;4.35;;;1.15;;
57395;SDS011;43222;52.912;6.940;2022-08-30T14:03:37;3.40;;;1.00;;
57395;SDS011;43222;52.912;6.940;2022-08-30T14:06:03;7.55;;;1.00;;
57395;SDS011;43222;52.912;6.940;2022-08-30T14:08:30;2.40;;;0.90;;
57395;SDS011;43222;52.912;6.940;2022-08-30T14:10:57;3.65;;;0.90;;
57395;SDS011;43222;52.912;6.940;2022-08-30T14:13:24;4.32;;;1.10;;
57395;SDS011;43222;52.912;6.940;2022-08-30T14:15:53;4.25;;;0.88;;
57395;SDS011;43222;52.912;6.940;2022-08-30T14:18:19;3.72;;;1.00;;
57395;SDS011;43222;52.912;6.940;2022-08-30T14:20:45;3.22;;;1.00;;
57395;SDS011;43222;52.912;6.940;2022-08-30T14:23:11;5.22;;;1.00;;
57395;SDS011;43222;52.912;6.940;2022-08-30T14:25:37;3.67;;;1.10;;
57395;SDS011;43222;52.912;6.940;2022-08-30T14:28:03;2.58;;;0.90;;
57395;SDS011;43222;52.912;6.940;2022-08-30T14:30:30;2.63;;;0.95;;
57395;SDS011;43222;52.912;6.940;2022-08-30T14:32:56;5.53;;;1.60;;
57395;SDS011;43222;52.912;6.940;2022-08-30T14:35:22;2.72;;;1.00;;
57395;SDS011;43222;52.912;6.940;2022-08-30T14:37:49;4.78;;;1.23;;
57395;SDS011;43222;52.912;6.940;2022-08-30T14:40:16;4.28;;;1.10;;
57395;SDS011;43222;52.912;6.940;2022-08-30T14:42:42;2.42;;;0.90;;
57395;SDS011;43222;52.912;6.940;2022-08-30T14:45:09;3.13;;;0.98;;
57395;SDS011;43222;52.912;6.940;2022-08-30T14:47:35;3.88;;;1.10;;
57395;SDS011;43222;52.912;6.940;2022-08-30T14:50:01;3.40;;;1.17;;
57395;SDS011;43222;52.912;6.940;2022-08-30T14:52:27;4.45;;;1.00;;
57395;SDS011;43222;52.912;6.940;2022-08-30T14:54:53;4.13;;;1.00;;
57395;SDS011;43222;52.912;6.940;2022-08-30T14:57:19;3.83;;;0.90;;
57395;SDS011;43222;52.912;6.940;2022-08-30T14:59:45;5.38;;;1.23;;
57395;SDS011;43222;52.912;6.940;2022-08-30T15:02:11;5.47;;;1.20;;
57395;SDS011;43222;52.912;6.940;2022-08-30T15:04:38;4.03;;;1.08;;
57395;SDS011;43222;52.912;6.940;2022-08-30T15:07:04;2.70;;;0.90;;
57395;SDS011;43222;52.912;6.940;2022-08-30T15:09:30;4.13;;;1.02;;
57395;SDS011;43222;52.912;6.940;2022-08-30T15:11:57;5.45;;;1.20;;
57395;SDS011;43222;52.912;6.940;2022-08-30T15:14:28;4.03;;;1.40;;
57395;SDS011;43222;52.912;6.940;2022-08-30T15:16:56;3.92;;;1.10;;
57395;SDS011;43222;52.912;6.940;2022-08-30T15:19:22;3.03;;;1.17;;
57395;SDS011;43222;52.912;6.940;2022-08-30T15:21:48;3.75;;;1.10;;
57395;SDS011;43222;52.912;6.940;2022-08-30T15:24:16;5.45;;;1.00;;
57395;SDS011;43222;52.912;6.940;2022-08-30T15:26:42;2.88;;;1.00;;
57395;SDS011;43222;52.912;6.940;2022-08-30T15:29:09;3.90;;;1.00;;
57395;SDS011;43222;52.912;6.940;2022-08-30T15:31:35;3.60;;;1.00;;
57395;SDS011;43222;52.912;6.940;2022-08-30T15:34:02;4.82;;;1.00;;
57395;SDS011;43222;52.912;6.940;2022-08-30T15:36:29;4.72;;;1.20;;
57395;SDS011;43222;52.912;6.940;2022-08-30T15:38:55;3.25;;;0.90;;
57395;SDS011;43222;52.912;6.940;2022-08-30T15:41:22;4.18;;;1.02;;
57395;SDS011;43222;52.912;6.940;2022-08-30T15:43:49;3.45;;;0.90;;
57395;SDS011;43222;52.912;6.940;2022-08-30T15:46:21;4.20;;;1.00;;
57395;SDS011;43222;52.912;6.940;2022-08-30T15:48:47;3.15;;;0.98;;
57395;SDS011;43222;52.912;6.940;2022-08-30T15:51:13;2.88;;;1.05;;
57395;SDS011;43222;52.912;6.940;2022-08-30T15:53:41;3.17;;;1.10;;
57395;SDS011;43222;52.912;6.940;2022-08-30T15:56:07;2.47;;;0.80;;